Time;durP1;ratioP1;P1;durP2;ratioP2;P2;SDS_P1;SDS_P2;PMS_P1;PMS_P2;Temp;Humidity;BMP_temperature;BMP_pressure;BME280_temperature;BME280_humidity;BME280_pressure;Samples;Min_cycle;Max_cycle;Signal;HPM_P1;HPM_P2
2023/07/15 00:01:42;;;;;;;;;;;;;;;24.90;64.81;100879.63;7397399;19;1846;-42
2023/07/15 00:04:13;;;;;;;;;;;;;;;24.97;64.67;100876.06;7397817;19;1400;-42
2023/07/15 00:06:42;;;;;;;;;;;;;;;25.20;64.19;100888.84;7398701;19;1288;-42
2023/07/15 00:09:10;;;;;;;;;;;;;;;25.16;64.88;100882.09;7399284;19;1077;-42
2023/07/15 00:11:41;;;;;;;;;;;;;;;25.09;64.68;100872.97;7397904;19;1809;-42
2023/07/15 00:14:17;;;;;;;;;;;;;;;25.08;64.73;100877.53;7399257;19;1652;-42
2023/07/15 00:16:49;;;;;;;;;;;;;;;25.09;64.71;100878.38;7398896;19;1255;-42
2023/07/15 00:19:18;;;;;;;;;;;;;;;25.10;64.76;100874.69;7395811;19;1658;-42
2023/07/15 00:21:47;;;;;;;;;;;;;;;25.10;64.91;100871.97;7398015;19;1866;-42
2023/07/15 00:24:16;;;;;;;;;;;;;;;24.79;64.72;100886.25;7397601;19;1104;-42
2023/07/15 00:26:47;;;;;;;;;;;;;;;24.61;64.98;100887.28;7398470;19;1618;-42
2023/07/15 00:29:16;;;;;;;;;;;;;;;24.60;65.26;100890.97;7397329;19;1602;-42
2023/07/15 00:31:44;;;;;;;;;;;;;;;24.56;65.14;100897.72;7396578;19;1631;-42
2023/07/15 00:34:15;;;;;;;;;;;;;;;24.59;65.07;100889.31;7396250;19;1539;-42
2023/07/15 00:36:44;;;;;;;;;;;;;;;24.57;65.07;100888.63;7398812;19;1317;-42
2023/07/15 00:39:12;;;;;;;;;;;;;;;24.58;65.12;100894.88;7397736;19;2143;-42
2023/07/15 00:41:41;;;;;;;;;;;;;;;24.70;65.10;100895.38;7396884;19;1845;-42
2023/07/15 00:44:14;;;;;;;;;;;;;;;24.80;64.79;100901.44;7398461;19;1562;-42
2023/07/15 00:46:59;;;;;;;;;;;;;;;24.93;64.33;100890.94;7396987;19;1563;-42
2023/07/15 00:49:28;;;;;;;;;;;;;;;24.85;64.56;100890.97;7397583;19;1656;-42
2023/07/15 00:52:02;;;;;;;;;;;;;;;24.73;64.44;100893.19;7396731;19;1312;-42
2023/07/15 00:54:33;;;;;;;;;;;;;;;24.69;64.46;100899.94;7397700;19;1402;-42
2023/07/15 00:57:02;;;;;;;;;;;;;;;24.50;64.79;100898.41;7396912;19;1373;-42
2023/07/15 00:59:31;;;;;;;;;;;;;;;24.49;64.68;100899.41;7396720;19;1527;-42
2023/07/15 01:02:02;;;;;;;;;;;;;;;24.73;64.63;100908.53;7396018;19;1845;-42
2023/07/15 01:04:30;;;;;;;;;;;;;;;24.71;64.62;100902.47;7395833;19;1384;-42
2023/07/15 01:06:59;;;;;;;;;;;;;;;24.86;64.33;100906.16;7396318;19;1346;-42
2023/07/15 01:09:28;;;;;;;;;;;;;;;24.94;64.07;100898.03;7396031;19;1467;-42
2023/07/15 01:11:57;;;;;;;;;;;;;;;24.70;64.63;100903.50;7395467;19;1507;-42
2023/07/15 01:14:25;;;;;;;;;;;;;;;24.70;64.57;100914.31;7397590;19;1125;-42
2023/07/15 01:16:54;;;;;;;;;;;;;;;24.60;64.80;100907.19;7394884;19;1261;-42
2023/07/15 01:19:27;;;;;;;;;;;;;;;24.49;65.08;100925.56;7396340;19;1938;-42
2023/07/15 01:21:56;;;;;;;;;;;;;;;24.61;64.40;100925.13;7396092;19;1864;-42
2023/07/15 01:24:27;;;;;;;;;;;;;;;24.49;64.89;100929.16;7395911;19;1244;-42
2023/07/15 01:27:00;;;;;;;;;;;;;;;24.38;64.89;100918.66;7395556;19;1544;-42
2023/07/15 01:29:28;;;;;;;;;;;;;;;24.48;65.08;100940.97;7396871;19;1436;-42
2023/07/15 01:31:57;;;;;;;;;;;;;;;24.48;65.08;100919.34;7394902;19;1433;-42
2023/07/15 01:34:25;;;;;;;;;;;;;;;24.43;65.11;100937.91;7396206;19;1673;-42
2023/07/15 01:36:55;;;;;;;;;;;;;;;24.48;64.71;100929.31;7396701;19;1566;-42
2023/07/15 01:39:27;;;;;;;;;;;;;;;24.42;64.93;100915.44;7396944;19;1204;-42
2023/07/15 01:41:55;;;;;;;;;;;;;;;24.38;64.88;100922.19;7395522;19;1841;-42
2023/07/15 01:44:21;;;;;;;;;;;;;;;24.34;65.30;100920.00;7395753;19;1507;-42
2023/07/15 01:46:50;;;;;;;;;;;;;;;24.37;64.79;100917.81;7394904;19;1500;-42
2023/07/15 01:49:18;;;;;;;;;;;;;;;24.50;64.61;100928.16;7396015;19;1384;-42
2023/07/15 01:51:46;;;;;;;;;;;;;;;24.53;64.79;100927.81;7395060;19;1193;-42
2023/07/15 01:54:15;;;;;;;;;;;;;;;24.53;64.40;100927.81;7396487;19;1601;-42
2023/07/15 01:56:46;;;;;;;;;;;;;;;24.51;64.52;100924.44;7396358;19;1417;-42
2023/07/15 01:59:14;;;;;;;;;;;;;;;24.53;64.33;100925.13;7396978;19;1014;-42
2023/07/15 02:01:44;;;;;;;;;;;;;;;24.62;64.12;100931.38;7395745;19;1433;-42
2023/07/15 02:04:12;;;;;;;;;;;;;;;24.54;64.19;100937.63;7391711;19;1856;-42
2023/07/15 02:06:40;;;;;;;;;;;;;;;24.51;64.15;100918.19;7395445;19;1543;-42
2023/07/15 02:09:09;;;;;;;;;;;;;;;24.57;63.80;100940.00;7394687;19;1500;-42
2023/07/15 02:11:37;;;;;;;;;;;;;;;24.63;63.94;100930.38;7395680;19;1206;-42
2023/07/15 02:14:10;;;;;;;;;;;;;;;24.79;63.56;100932.22;7395664;19;1502;-42
2023/07/15 02:16:38;;;;;;;;;;;;;;;24.57;64.07;100945.41;7393873;19;1166;-42
2023/07/15 02:19:07;;;;;;;;;;;;;;;24.54;64.13;100945.72;7393770;19;1547;-42
2023/07/15 02:21:35;;;;;;;;;;;;;;;24.47;63.98;100939.28;7394187;19;1389;-42
2023/07/15 02:24:03;;;;;;;;;;;;;;;24.53;63.93;100932.38;7392162;19;1845;-42
2023/07/15 02:26:32;;;;;;;;;;;;;;;24.50;63.79;100936.25;7395371;19;1539;-42
2023/07/15 02:29:00;;;;;;;;;;;;;;;24.41;64.12;100929.13;7400485;19;1859;-42
2023/07/15 02:31:32;;;;;;;;;;;;;;;24.57;63.54;100936.44;7401630;19;1552;-42
2023/07/15 02:34:00;;;;;;;;;;;;;;;24.61;63.32;100933.22;7401345;19;1640;-42
2023/07/15 02:36:28;;;;;;;;;;;;;;;24.07;63.66;100873.34;7401847;19;1480;-43
2023/07/15 02:38:57;;;;;;;;;;;;;;;24.46;63.71;100937.56;7402588;19;1307;-42
2023/07/15 02:41:25;;;;;;;;;;;;;;;24.44;63.85;100939.59;7401383;19;1277;-42
2023/07/15 02:43:54;;;;;;;;;;;;;;;24.58;63.52;100944.38;7399224;19;1854;-42
2023/07/15 02:46:22;;;;;;;;;;;;;;;24.51;63.41;100956.03;7401601;19;1567;-42
2023/07/15 02:48:53;;;;;;;;;;;;;;;24.43;64.04;100970.34;7401376;19;1860;-42
2023/07/15 02:51:23;;;;;;;;;;;;;;;24.51;63.71;100956.03;7402295;19;1264;-42
2023/07/15 02:53:52;;;;;;;;;;;;;;;24.38;63.77;100961.91;7401513;19;1300;-42
2023/07/15 02:56:21;;;;;;;;;;;;;;;24.35;63.94;100964.91;7400398;19;1841;-42
2023/07/15 02:58:49;;;;;;;;;;;;;;;24.30;64.24;100967.28;7400368;19;1538;-42
2023/07/15 03:01:17;;;;;;;;;;;;;;;24.31;64.11;100963.56;7401332;19;1453;-42
2023/07/15 03:03:45;;;;;;;;;;;;;;;24.31;64.10;100974.38;7399523;19;1849;-42
2023/07/15 03:06:16;;;;;;;;;;;;;;;24.31;64.14;100974.38;7402017;19;1208;-42
2023/07/15 03:08:45;;;;;;;;;;;;;;;24.42;63.75;100969.50;7400979;19;1860;-42
2023/07/15 03:11:13;;;;;;;;;;;;;;;24.53;63.22;100962.97;7401255;19;1234;-42
2023/07/15 03:13:42;;;;;;;;;;;;;;;24.49;63.77;100979.66;7400812;19;1546;-42
2023/07/15 03:16:10;;;;;;;;;;;;;;;24.50;63.66;100982.22;7401426;19;1579;-42
2023/07/15 03:18:38;;;;;;;;;;;;;;;24.48;63.77;100984.22;7400657;19;1303;-42
2023/07/15 03:21:07;;;;;;;;;;;;;;;24.72;62.90;100980.72;7400744;19;1959;-42
2023/07/15 03:23:37;;;;;;;;;;;;;;;24.60;63.48;100976.66;7398250;19;1863;-42
2023/07/15 03:26:06;;;;;;;;;;;;;;;24.61;62.83;100995.44;7400105;19;1488;-42
2023/07/15 03:28:34;;;;;;;;;;;;;;;24.46;63.08;100997.06;7400626;19;1202;-42
2023/07/15 03:31:04;;;;;;;;;;;;;;;24.48;63.55;100984.22;7399049;19;1547;-42
2023/07/15 03:33:32;;;;;;;;;;;;;;;24.63;62.81;100999.81;7396408;19;1181;-42
2023/07/15 03:36:01;;;;;;;;;;;;;;;24.69;62.29;101000.00;7399259;19;1312;-42
2023/07/15 03:38:29;;;;;;;;;;;;;;;24.36;63.34;100988.25;7398042;19;1646;-42
2023/07/15 03:41:00;;;;;;;;;;;;;;;24.40;63.62;100986.91;7397723;19;1444;-42
2023/07/15 03:43:29;;;;;;;;;;;;;;;24.57;63.29;101013.00;7398921;19;1845;-42
2023/07/15 03:45:59;;;;;;;;;;;;;;;24.57;63.19;100994.06;7399759;19;1499;-42
2023/07/15 03:48:27;;;;;;;;;;;;;;;24.52;62.98;100999.13;7400509;19;1213;-42
2023/07/15 03:50:56;;;;;;;;;;;;;;;24.55;63.21;100996.09;7400227;19;1559;-42
2023/07/15 03:53:25;;;;;;;;;;;;;;;24.53;63.00;100992.72;7399150;19;1550;-42
2023/07/15 03:55:53;;;;;;;;;;;;;;;24.52;62.99;100991.00;7399727;19;1480;-42
2023/07/15 03:58:24;;;;;;;;;;;;;;;24.55;62.87;100997.94;7395443;19;1312;-42
2023/07/15 04:00:52;;;;;;;;;;;;;;;24.64;62.63;101005.06;7395514;19;1540;-42
2023/07/15 04:03:20;;;;;;;;;;;;;;;24.61;62.91;100998.13;7396918;19;1857;-42
2023/07/15 04:05:49;;;;;;;;;;;;;;;24.55;62.92;101006.91;7398032;19;1945;-42
2023/07/15 04:08:17;;;;;;;;;;;;;;;24.60;62.66;100999.13;7396490;19;1574;-42
2023/07/15 04:10:47;;;;;;;;;;;;;;;24.57;62.48;101001.31;7399013;19;1532;-42
2023/07/15 04:13:16;;;;;;;;;;;;;;;24.48;62.71;101000.44;7397443;19;1318;-42
2023/07/15 04:15:47;;;;;;;;;;;;;;;24.55;62.80;100997.94;7397424;19;1331;-42
2023/07/15 04:18:16;;;;;;;;;;;;;;;24.74;62.19;101015.72;7398872;19;1255;-42
2023/07/15 04:20:44;;;;;;;;;;;;;;;24.67;62.29;101009.28;7397880;19;1445;-42
2023/07/15 04:23:13;;;;;;;;;;;;;;;24.78;61.89;101017.06;7397865;19;1835;-42
2023/07/15 04:25:41;;;;;;;;;;;;;;;24.69;62.30;101012.66;7396863;19;1472;-42
2023/07/15 04:28:09;;;;;;;;;;;;;;;24.69;62.17;101001.84;7397934;19;1209;-42
2023/07/15 04:30:38;;;;;;;;;;;;;;;24.61;62.61;101019.75;7397720;19;1492;-42
2023/07/15 04:33:09;;;;;;;;;;;;;;;24.57;62.71;101015.69;7395427;19;1730;-42
2023/07/15 04:35:37;;;;;;;;;;;;;;;24.70;62.62;101020.59;7399300;19;1181;-42
2023/07/15 04:38:05;;;;;;;;;;;;;;;24.79;62.24;101021.47;7396772;19;1259;-44
2023/07/15 04:40:34;;;;;;;;;;;;;;;24.82;62.62;101029.25;7397266;19;1562;-42
2023/07/15 04:43:02;;;;;;;;;;;;;;;24.86;62.50;101011.66;7397367;19;1857;-42
2023/07/15 04:45:32;;;;;;;;;;;;;;;24.86;62.70;101011.66;7397522;19;1542;-42
2023/07/15 04:48:00;;;;;;;;;;;;;;;24.90;62.63;101023.84;7397248;19;1308;-42
2023/07/15 04:50:31;;;;;;;;;;;;;;;24.95;62.40;101037.72;7396610;19;1413;-42
2023/07/15 04:53:00;;;;;;;;;;;;;;;25.01;62.34;101028.91;7396396;19;1924;-42
2023/07/15 04:55:28;;;;;;;;;;;;;;;25.06;62.16;101011.34;7395734;19;1613;-42
2023/07/15 04:57:56;;;;;;;;;;;;;;;25.10;61.87;101020.78;7395930;19;1499;-42
2023/07/15 05:00:27;;;;;;;;;;;;;;;25.13;61.91;101015.06;7396758;19;1555;-42
2023/07/15 05:02:55;;;;;;;;;;;;;;;25.15;62.09;101027.41;7396518;19;1846;-42
2023/07/15 05:05:23;;;;;;;;;;;;;;;25.18;61.93;101024.34;7395031;19;1251;-42
2023/07/15 05:07:54;;;;;;;;;;;;;;;25.21;62.17;101023.16;7397474;19;1432;-42
2023/07/15 05:10:24;;;;;;;;;;;;;;;25.25;62.43;101026.38;7395746;19;1225;-42
2023/07/15 05:12:52;;;;;;;;;;;;;;;25.27;62.08;101036.03;7396863;19;1565;-42
2023/07/15 05:15:20;;;;;;;;;;;;;;;25.35;61.88;101025.22;7395935;19;1267;-42
2023/07/15 05:17:49;;;;;;;;;;;;;;;25.39;61.65;101026.56;7397793;19;1094;-47
2023/07/15 05:20:18;;;;;;;;;;;;;;;25.37;61.78;101023.19;7396977;19;1496;-42
2023/07/15 05:22:46;;;;;;;;;;;;;;;25.37;61.80;101016.91;7396510;19;1200;-42
2023/07/15 05:25:18;;;;;;;;;;;;;;;25.39;61.50;101017.59;7394628;19;1844;-42
2023/07/15 05:27:46;;;;;;;;;;;;;;;25.42;61.57;101024.53;7395825;19;1578;-42
2023/07/15 05:30:14;;;;;;;;;;;;;;;25.43;61.33;101016.22;7396003;19;1519;-43
2023/07/15 05:32:43;;;;;;;;;;;;;;;25.42;61.29;101008.28;7393846;19;1765;-42
2023/07/15 05:35:11;;;;;;;;;;;;;;;25.48;61.15;101023.81;7393358;19;1334;-42
2023/07/15 05:37:40;;;;;;;;;;;;;;;25.56;61.39;101021.09;7395460;19;1546;-42
2023/07/15 05:40:09;;;;;;;;;;;;;;;25.52;61.30;101038.72;7394294;19;1436;-42
2023/07/15 05:42:40;;;;;;;;;;;;;;;25.54;60.91;101033.97;7394969;19;1651;-42
2023/07/15 05:45:09;;;;;;;;;;;;;;;25.32;61.57;101044.47;7394558;19;1859;-42
2023/07/15 05:47:37;;;;;;;;;;;;;;;25.25;61.95;101045.34;7397381;19;1103;-42
2023/07/15 05:50:06;;;;;;;;;;;;;;;25.26;62.22;101041.63;7396098;19;1286;-43
2023/07/15 05:52:35;;;;;;;;;;;;;;;25.27;62.12;101049.59;7395385;19;1176;-43
2023/07/15 05:55:04;;;;;;;;;;;;;;;25.39;62.35;101036.53;7395814;19;1239;-42
2023/07/15 05:57:32;;;;;;;;;;;;;;;25.34;62.05;101061.41;7393814;19;1489;-42
2023/07/15 06:00:03;;;;;;;;;;;;;;;25.32;62.50;101046.34;7393860;19;1519;-42
2023/07/15 06:02:32;;;;;;;;;;;;;;;25.45;62.24;101051.25;7395526;19;1459;-42
2023/07/15 06:05:00;;;;;;;;;;;;;;;25.36;62.55;101045.00;7400265;19;1859;-42
2023/07/15 06:07:29;;;;;;;;;;;;;;;25.34;62.55;101044.31;7400061;19;1892;-42
2023/07/15 06:09:57;;;;;;;;;;;;;;;25.33;62.52;101046.19;7400795;19;1222;-42
2023/07/15 06:12:25;;;;;;;;;;;;;;;25.29;62.77;101042.13;7395863;19;1229;-47
2023/07/15 06:14:53;;;;;;;;;;;;;;;25.33;62.85;101053.47;7398781;19;1595;-42
2023/07/15 06:17:24;;;;;;;;;;;;;;;25.34;62.54;101055.16;7398770;19;987;-42
2023/07/15 06:19:53;;;;;;;;;;;;;;;25.31;62.93;101031.16;7398107;19;1563;-42
2023/07/15 06:22:21;;;;;;;;;;;;;;;25.35;63.73;101046.88;7400524;19;1625;-42
2023/07/15 06:24:50;;;;;;;;;;;;;;;25.46;63.25;101031.28;7399584;19;1850;-41
2023/07/15 06:27:19;;;;;;;;;;;;;;;25.47;63.59;101041.09;7401050;19;1613;-42
2023/07/15 06:29:48;;;;;;;;;;;;;;;25.75;62.80;101036.13;7401652;19;1266;-42
2023/07/15 06:32:17;;;;;;;;;;;;;;;25.68;63.59;101035.13;7400362;19;1559;-41
2023/07/15 06:34:48;;;;;;;;;;;;;;;25.67;63.66;101039.69;7401713;19;1564;-42
2023/07/15 06:37:16;;;;;;;;;;;;;;;25.52;64.09;101031.41;7401052;19;1391;-42
2023/07/15 06:39:44;;;;;;;;;;;;;;;25.69;63.60;101026.81;7401868;19;1960;-43
2023/07/15 06:42:12;;;;;;;;;;;;;;;25.69;63.98;101029.53;7402656;19;1304;-42
2023/07/15 06:44:41;;;;;;;;;;;;;;;25.57;64.69;101025.50;7399970;19;1848;-42
2023/07/15 06:47:09;;;;;;;;;;;;;;;25.69;63.96;101024.13;7401204;19;1845;-42
2023/07/15 06:49:37;;;;;;;;;;;;;;;25.83;64.51;101038.81;7401125;19;1712;-42
2023/07/15 06:52:08;;;;;;;;;;;;;;;25.91;64.15;101013.59;7401670;19;1538;-42
2023/07/15 06:54:37;;;;;;;;;;;;;;;25.82;64.15;101020.00;7401454;19;1288;-42
2023/07/15 06:57:05;;;;;;;;;;;;;;;25.86;64.12;101016.78;7401170;19;1661;-42
2023/07/15 06:59:34;;;;;;;;;;;;;;;25.95;64.31;101014.91;7400672;19;1479;-41
2023/07/15 07:02:02;;;;;;;;;;;;;;;25.94;64.34;101015.94;7400593;19;1331;-42
2023/07/15 07:04:30;;;;;;;;;;;;;;;25.78;65.08;101014.09;7398599;19;1845;-42
2023/07/15 07:06:58;;;;;;;;;;;;;;;25.71;66.68;101034.78;7400614;19;1563;-42
2023/07/15 07:09:29;;;;;;;;;;;;;;;25.72;66.45;101037.28;7400418;19;1622;-42
2023/07/15 07:11:58;;;;;;;;;;;;;;;25.67;66.48;101019.91;7401263;19;1264;-42
2023/07/15 07:14:26;;;;;;;;;;;;;;;25.77;65.68;101034.09;7396040;19;1820;-42
2023/07/15 07:16:54;;;;;;;;;;;;;;;25.74;66.00;101020.88;7398444;19;1856;-42
2023/07/15 07:19:22;;;;;;;;;;;;;;;25.66;66.71;101024.44;7397603;19;1942;-42
2023/07/15 07:21:51;;;;;;;;;;;;;;;25.64;66.52;101018.38;7398976;19;1408;-42
2023/07/15 07:24:19;;;;;;;;;;;;;;;25.73;66.64;101021.91;7399569;19;1849;-42
2023/07/15 07:26:51;;;;;;;;;;;;;;;25.88;66.06;101030.16;7399886;19;1503;-41
2023/07/15 07:29:19;;;;;;;;;;;;;;;25.67;66.54;101011.78;7399121;19;1531;-42
2023/07/15 07:31:47;;;;;;;;;;;;;;;25.63;67.23;101021.28;7399746;19;1645;-42
2023/07/15 07:34:16;;;;;;;;;;;;;;;25.67;67.35;101018.03;7399859;19;1468;-42
2023/07/15 07:36:44;;;;;;;;;;;;;;;25.73;67.00;101006.50;7399979;19;1263;-42
2023/07/15 07:39:12;;;;;;;;;;;;;;;25.80;67.21;101009.34;7400117;19;1794;-42
2023/07/15 07:41:41;;;;;;;;;;;;;;;25.80;66.92;101023.75;7399455;19;1546;-42
2023/07/15 07:44:11;;;;;;;;;;;;;;;25.70;66.73;101006.84;7395698;19;1818;-42
2023/07/15 07:46:40;;;;;;;;;;;;;;;25.66;67.10;101012.78;7398250;19;1407;-44
2023/07/15 07:49:08;;;;;;;;;;;;;;;25.68;66.88;101006.16;7399173;19;1312;-42
2023/07/15 07:51:36;;;;;;;;;;;;;;;25.66;67.16;101005.50;7398491;19;1478;-42
2023/07/15 07:54:05;;;;;;;;;;;;;;;25.68;67.03;101006.16;7399023;19;1454;-42
2023/07/15 07:56:33;;;;;;;;;;;;;;;25.72;66.55;100993.97;7398222;19;1441;-42
2023/07/15 07:59:01;;;;;;;;;;;;;;;25.67;67.25;101004.50;7399477;19;1650;-42
2023/07/15 08:01:33;;;;;;;;;;;;;;;25.71;66.88;101000.41;7398265;19;1174;-42
2023/07/15 08:04:01;;;;;;;;;;;;;;;25.70;66.89;101001.41;7399502;19;1837;-42
2023/07/15 08:06:31;;;;;;;;;;;;;;;25.79;66.63;100997.66;7398871;19;1173;-42
2023/07/15 08:08:59;;;;;;;;;;;;;;;25.79;67.15;100988.72;7396698;19;1544;-42
2023/07/15 08:11:27;;;;;;;;;;;;;;;25.73;67.57;100995.66;7398626;19;1534;-42
2023/07/15 08:13:56;;;;;;;;;;;;;;;25.63;67.56;101000.44;7397002;19;1610;-41
2023/07/15 08:16:29;;;;;;;;;;;;;;;25.73;67.46;101005.66;7396744;19;1605;-41
2023/07/15 08:19:00;;;;;;;;;;;;;;;25.67;67.44;100998.22;7394295;19;1659;-41
2023/07/15 08:21:29;;;;;;;;;;;;;;;25.49;68.74;101003.88;7391560;19;1777;-41
2023/07/15 08:23:57;;;;;;;;;;;;;;;24.74;68.30;100994.91;7395561;19;1408;-41
2023/07/15 08:26:27;;;;;;;;;;;;;;;24.63;67.44;101005.22;7394715;19;1653;-41
2023/07/15 08:28:55;;;;;;;;;;;;;;;24.54;67.40;101004.38;7394328;19;1297;-41
2023/07/15 08:31:24;;;;;;;;;;;;;;;24.50;66.91;101008.38;7397107;19;1483;-41
2023/07/15 08:33:52;;;;;;;;;;;;;;;24.40;66.78;100992.31;7393947;19;1361;-41
2023/07/15 08:36:23;;;;;;;;;;;;;;;24.47;66.71;100993.34;7392789;19;1689;-41
2023/07/15 08:38:51;;;;;;;;;;;;;;;24.42;66.71;100993.00;7393218;19;1631;-41
2023/07/15 08:41:21;;;;;;;;;;;;;;;24.41;66.76;100988.59;7394802;19;1574;-41
2023/07/15 08:43:49;;;;;;;;;;;;;;;24.37;67.62;100998.91;7393363;19;1222;-41
2023/07/15 08:46:22;;;;;;;;;;;;;;;24.25;67.58;100997.50;7392620;19;1978;-41
2023/07/15 08:48:51;;;;;;;;;;;;;;;24.21;67.46;100982.63;7392793;19;1849;-41
2023/07/15 08:51:20;;;;;;;;;;;;;;;24.18;67.57;100978.41;7397125;19;1538;-41
2023/07/15 08:53:51;;;;;;;;;;;;;;;24.18;67.76;100978.41;7397510;19;1574;-41
2023/07/15 08:56:20;;;;;;;;;;;;;;;24.13;67.47;100980.78;7397907;19;1491;-41
2023/07/15 08:58:48;;;;;;;;;;;;;;;24.13;67.32;100988.88;7395896;19;1476;-41
2023/07/15 09:01:16;;;;;;;;;;;;;;;24.08;67.26;100976.88;7396584;19;1161;-41
2023/07/15 09:03:45;;;;;;;;;;;;;;;24.06;67.12;100985.13;7396129;19;1429;-41
2023/07/15 09:06:13;;;;;;;;;;;;;;;24.16;66.56;100990.41;7394976;19;1854;-41
2023/07/15 09:08:43;;;;;;;;;;;;;;;24.17;66.25;100997.47;7396060;19;1256;-41
2023/07/15 09:11:15;;;;;;;;;;;;;;;24.09;66.17;100990.19;7395929;19;1495;-41
2023/07/15 09:13:44;;;;;;;;;;;;;;;24.18;65.83;101002.72;7396348;19;1489;-41
2023/07/15 09:16:12;;;;;;;;;;;;;;;24.09;66.03;100990.19;7396926;19;1562;-41
2023/07/15 09:18:42;;;;;;;;;;;;;;;24.02;66.49;100994.56;7396892;19;1243;-41
2023/07/15 09:21:12;;;;;;;;;;;;;;;24.11;65.85;100982.75;7396727;19;1152;-41
2023/07/15 09:23:42;;;;;;;;;;;;;;;23.94;66.02;100984.56;7395570;19;1507;-41
2023/07/15 09:26:10;;;;;;;;;;;;;;;24.04;65.93;101007.91;7394818;19;1853;-41
2023/07/15 09:28:42;;;;;;;;;;;;;;;24.14;65.21;100989.72;7397195;19;1251;-41
2023/07/15 09:31:10;;;;;;;;;;;;;;;24.10;65.60;100981.09;7397372;19;1105;-41
2023/07/15 09:33:42;;;;;;;;;;;;;;;23.99;65.70;100992.19;7395019;19;1222;-41
2023/07/15 09:36:11;;;;;;;;;;;;;;;24.07;65.14;100981.41;7396552;19;1504;-41
2023/07/15 09:38:40;;;;;;;;;;;;;;;23.96;65.60;100979.03;7401286;19;1244;-41
2023/07/15 09:41:10;;;;;;;;;;;;;;;23.94;65.43;100987.28;7404047;19;1311;-41
2023/07/15 09:43:49;;;;;;;;;;;;;;;24.12;65.14;100978.22;7402364;19;1486;-41
2023/07/15 09:46:18;;;;;;;;;;;;;;;23.88;65.82;100968.19;7401074;19;1850;-41
2023/07/15 09:48:46;;;;;;;;;;;;;;;23.92;65.50;100966.84;7403129;19;1547;-41
2023/07/15 09:51:16;;;;;;;;;;;;;;;24.03;65.21;100977.34;7403434;19;1236;-41
2023/07/15 09:53:46;;;;;;;;;;;;;;;23.82;65.80;100977.78;6877931;19;10000089;-41
2023/07/15 09:56:15;;;;;;;;;;;;;;;23.98;65.16;100968.91;7393116;19;1677;-41
2023/07/15 09:58:45;;;;;;;;;;;;;;;24.01;65.08;100965.84;7396062;19;1675;-41
2023/07/15 10:01:19;;;;;;;;;;;;;;;24.06;64.56;100968.91;7396048;19;1515;-42
2023/07/15 10:03:51;;;;;;;;;;;;;;;24.01;64.40;100966.72;7396747;19;1609;-41
2023/07/15 10:06:19;;;;;;;;;;;;;;;23.95;64.46;100969.22;7393868;19;1854;-41
2023/07/15 10:08:48;;;;;;;;;;;;;;;23.91;64.43;100954.34;7388603;19;1377;-41
2023/07/15 10:11:17;;;;;;;;;;;;;;;23.94;64.72;100954.03;7394161;19;1520;-41
2023/07/15 10:13:46;;;;;;;;;;;;;;;23.96;64.90;100955.53;7396312;19;1632;-41
2023/07/15 10:16:17;;;;;;;;;;;;;;;24.19;64.27;100960.31;7395389;19;1558;-41
2023/07/15 10:18:48;;;;;;;;;;;;;;;24.09;64.48;100951.53;7394397;19;1464;-41
2023/07/15 10:21:17;;;;;;;;;;;;;;;24.01;64.55;100955.03;7392729;19;1659;-42
2023/07/15 10:23:45;;;;;;;;;;;;;;;23.97;64.25;100942.88;7395744;19;1749;-41
2023/07/15 10:26:13;;;;;;;;;;;;;;;24.02;64.30;100949.47;7393493;19;1877;-40
2023/07/15 10:28:42;;;;;;;;;;;;;;;23.96;64.74;100941.19;7394271;19;1511;-40
2023/07/15 10:31:11;;;;;;;;;;;;;;;24.03;64.37;100942.22;7394459;19;1602;-42
2023/07/15 10:33:54;;;;;;;;;;;;;;;24.10;64.04;100943.25;7393185;19;1480;-42
2023/07/15 10:36:36;;;;;;;;;;;;;;;24.04;64.16;100952.03;7396303;19;1405;-41
2023/07/15 10:39:11;;;;;;;;;;;;;;;24.02;64.35;100941.38;7392016;19;1587;-40
2023/07/15 10:41:43;;;;;;;;;;;;;;;23.95;64.70;100924.13;7393058;19;1497;-40
2023/07/15 10:44:29;;;;;;;;;;;;;;;23.79;65.10;100938.41;7393449;19;1420;-40
2023/07/15 10:47:04;;;;;;;;;;;;;;;23.75;65.30;100936.19;7390234;19;1856;-40
2023/07/15 10:49:35;;;;;;;;;;;;;;;23.68;64.85;100949.50;7392044;19;1455;-40
2023/07/15 10:52:05;;;;;;;;;;;;;;;23.65;65.08;100941.72;7392254;19;1318;-41
2023/07/15 10:54:34;;;;;;;;;;;;;;;23.79;64.52;100943.81;7387879;19;2448;-40
2023/07/15 10:57:09;;;;;;;;;;;;;;;23.75;64.51;100934.31;7391115;19;1389;-40
2023/07/15 10:59:38;;;;;;;;;;;;;;;23.62;64.71;100934.78;7392529;19;2570;-44
2023/07/15 11:02:07;;;;;;;;;;;;;;;23.55;64.62;100933.72;7394194;19;1679;-41
2023/07/15 11:04:38;;;;;;;;;;;;;;;23.58;64.38;100932.59;7393065;19;1559;-40
2023/07/15 11:07:09;;;;;;;;;;;;;;;23.56;63.60;100908.44;7389830;19;1849;-40
2023/07/15 11:09:39;;;;;;;;;;;;;;;23.66;63.56;100924.53;7392943;19;1487;-40
2023/07/15 11:12:09;;;;;;;;;;;;;;;23.70;63.24;100930.44;7394668;19;1487;-40
2023/07/15 11:14:40;;;;;;;;;;;;;;;23.73;63.06;100925.53;7393597;19;1835;-40
2023/07/15 11:17:09;;;;;;;;;;;;;;;23.78;62.88;100901.63;7389462;19;1388;-40
2023/07/15 11:19:40;;;;;;;;;;;;;;;23.71;62.88;100905.13;7393795;19;1468;-40
2023/07/15 11:22:10;;;;;;;;;;;;;;;23.75;62.80;100904.63;7393572;19;1868;-40
2023/07/15 11:24:38;;;;;;;;;;;;;;;23.69;62.78;100920.63;7391283;19;1794;-40
2023/07/15 11:27:07;;;;;;;;;;;;;;;23.70;62.58;100916.94;7390180;19;1845;-40
2023/07/15 11:29:35;;;;;;;;;;;;;;;23.80;62.23;100926.63;7391487;19;1618;-40
2023/07/15 11:32:03;;;;;;;;;;;;;;;23.68;62.38;100911.69;7391939;19;1606;-40
2023/07/15 11:34:32;;;;;;;;;;;;;;;23.70;62.24;100920.47;7393280;19;1599;-40
2023/07/15 11:37:07;;;;;;;;;;;;;;;23.61;62.55;100916.88;7393755;19;1630;-40
2023/07/15 11:39:41;;;;;;;;;;;;;;;23.71;62.16;100916.75;7392037;19;1621;-40
2023/07/15 11:42:10;;;;;;;;;;;;;;;23.57;62.13;100917.38;7392085;19;1904;-40
2023/07/15 11:44:38;;;;;;;;;;;;;;;23.53;62.48;100930.34;7391375;19;1551;-40
2023/07/15 11:47:08;;;;;;;;;;;;;;;23.46;62.30;100902.34;7390449;19;1858;-40
2023/07/15 11:49:45;;;;;;;;;;;;;;;23.57;62.66;100909.28;7392982;19;1477;-40
2023/07/15 11:52:23;;;;;;;;;;;;;;;23.52;62.51;100900.84;7390785;19;1237;-40
2023/07/15 11:54:52;;;;;;;;;;;;;;;23.56;62.46;100908.44;7391602;19;1983;-40
2023/07/15 11:57:26;;;;;;;;;;;;;;;23.49;62.68;100898.47;7391497;19;1484;-40
2023/07/15 11:59:54;;;;;;;;;;;;;;;23.47;62.48;100892.38;7389027;19;1490;-40
2023/07/15 12:02:23;;;;;;;;;;;;;;;23.40;62.95;100905.69;7391281;19;1457;-40
2023/07/15 12:04:51;;;;;;;;;;;;;;;23.36;62.97;100901.63;7390846;19;1485;-40
2023/07/15 12:07:24;;;;;;;;;;;;;;;23.31;63.03;100893.16;7389930;19;1868;-40
2023/07/15 12:10:07;;;;;;;;;;;;;;;23.37;63.04;100896.03;7392873;19;1170;-39
2023/07/15 12:12:35;;;;;;;;;;;;;;;23.40;63.02;100894.88;7392734;19;1410;-40
2023/07/15 12:15:04;;;;;;;;;;;;;;;23.54;63.28;100863.75;7391719;19;1765;-39
2023/07/15 12:17:32;;;;;;;;;;;;;;;23.57;63.23;100885.81;7385334;19;1539;-40
2023/07/15 12:20:00;;;;;;;;;;;;;;;23.67;62.61;100876.75;7390382;19;1484;-39
2023/07/15 12:22:31;;;;;;;;;;;;;;;23.77;62.90;100883.72;7390357;19;1305;-40
2023/07/15 12:25:00;;;;;;;;;;;;;;;23.93;62.62;100882.09;7387017;19;1670;-40
2023/07/15 12:27:28;;;;;;;;;;;;;;;24.09;62.90;100876.72;7386573;19;1851;-40
2023/07/15 12:29:56;;;;;;;;;;;;;;;24.31;62.84;100863.56;7388397;19;1432;-39
2023/07/15 12:32:25;;;;;;;;;;;;;;;24.34;62.67;100858.69;7389434;19;1605;-39
2023/07/15 12:34:53;;;;;;;;;;;;;;;24.34;62.71;100853.28;7390012;19;1497;-40
2023/07/15 12:37:21;;;;;;;;;;;;;;;24.06;60.40;100878.94;7389475;19;1789;-39
2023/07/15 12:39:52;;;;;;;;;;;;;;;24.08;60.97;100858.00;7394109;19;1445;-39
2023/07/15 12:42:20;;;;;;;;;;;;;;;24.02;60.47;100849.53;7396125;19;1108;-39
2023/07/15 12:44:49;;;;;;;;;;;;;;;24.02;59.96;100890.06;7384044;19;1472;-47
2023/07/15 12:47:17;;;;;;;;;;;;;;;24.14;60.89;100895.97;7345692;19;10734;-39
2023/07/15 12:49:45;;;;;;;;;;;;;;;24.20;59.50;100841.28;7388480;19;7211;-40
2023/07/15 12:52:14;;;;;;;;;;;;;;;24.08;58.82;100842.63;7393314;19;6863;-39
2023/07/15 12:54:42;;;;;;;;;;;;;;;24.01;59.01;100853.25;7329452;19;13471;-39
2023/07/15 12:57:13;;;;;;;;;;;;;;;24.06;58.24;100844.66;7395249;19;1337;-39